sensor_id;sensor_type;location;lat;lon;timestamp;temperature;humidity
7232;DHT22;3657;49.630;11.018;2023-07-24T00:02:20;23.10;56.30
7232;DHT22;3657;49.630;11.018;2023-07-24T00:04:47;23.10;56.00
7232;DHT22;3657;49.630;11.018;2023-07-24T00:07:13;23.20;56.60
7232;DHT22;3657;49.630;11.018;2023-07-24T00:09:41;23.30;56.10
7232;DHT22;3657;49.630;11.018;2023-07-24T00:12:08;23.30;55.90
7232;DHT22;3657;49.630;11.018;2023-07-24T00:14:35;23.30;57.20
7232;DHT22;3657;49.630;11.018;2023-07-24T00:17:02;23.20;56.70
7232;DHT22;3657;49.630;11.018;2023-07-24T00:19:28;23.20;57.50
7232;DHT22;3657;49.630;11.018;2023-07-24T00:21:55;23.00;58.80
7232;DHT22;3657;49.630;11.018;2023-07-24T00:24:22;23.00;58.10
7232;DHT22;3657;49.630;11.018;2023-07-24T00:26:50;23.00;58.50
7232;DHT22;3657;49.630;11.018;2023-07-24T00:29:16;23.00;59.10
7232;DHT22;3657;49.630;11.018;2023-07-24T00:31:43;23.00;60.10
7232;DHT22;3657;49.630;11.018;2023-07-24T00:34:10;23.00;59.90
7232;DHT22;3657;49.630;11.018;2023-07-24T00:36:37;23.00;59.10
7232;DHT22;3657;49.630;11.018;2023-07-24T00:39:04;23.10;59.80
7232;DHT22;3657;49.630;11.018;2023-07-24T00:41:30;23.20;59.30
7232;DHT22;3657;49.630;11.018;2023-07-24T00:43:58;23.20;60.90
7232;DHT22;3657;49.630;11.018;2023-07-24T00:46:25;23.10;63.80
7232;DHT22;3657;49.630;11.018;2023-07-24T00:48:52;22.90;63.70
7232;DHT22;3657;49.630;11.018;2023-07-24T00:51:19;22.70;65.40
7232;DHT22;3657;49.630;11.018;2023-07-24T00:53:46;22.60;67.20
7232;DHT22;3657;49.630;11.018;2023-07-24T00:56:13;22.20;69.70
7232;DHT22;3657;49.630;11.018;2023-07-24T00:58:40;21.90;71.60
7232;DHT22;3657;49.630;11.018;2023-07-24T01:01:10;22.20;69.60
7232;DHT22;3657;49.630;11.018;2023-07-24T01:03:37;22.20;70.60
7232;DHT22;3657;49.630;11.018;2023-07-24T01:06:04;21.30;76.70
7232;DHT22;3657;49.630;11.018;2023-07-24T01:08:31;20.60;83.70
7232;DHT22;3657;49.630;11.018;2023-07-24T01:11:02;20.20;90.60
7232;DHT22;3657;49.630;11.018;2023-07-24T01:13:33;20.40;90.40
7232;DHT22;3657;49.630;11.018;2023-07-24T01:16:04;20.40;91.90
7232;DHT22;3657;49.630;11.018;2023-07-24T01:18:37;20.90;90.50
7232;DHT22;3657;49.630;11.018;2023-07-24T01:21:06;21.20;90.80
7232;DHT22;3657;49.630;11.018;2023-07-24T01:23:44;20.60;91.80
7232;DHT22;3657;49.630;11.018;2023-07-24T01:26:15;20.50;93.00
7232;DHT22;3657;49.630;11.018;2023-07-24T01:28:42;20.40;92.70
7232;DHT22;3657;49.630;11.018;2023-07-24T01:31:08;20.30;94.10
7232;DHT22;3657;49.630;11.018;2023-07-24T01:33:35;20.00;95.00
7232;DHT22;3657;49.630;11.018;2023-07-24T01:36:03;20.40;93.50
7232;DHT22;3657;49.630;11.018;2023-07-24T01:38:31;19.80;95.00
7232;DHT22;3657;49.630;11.018;2023-07-24T01:41:01;19.40;96.10
7232;DHT22;3657;49.630;11.018;2023-07-24T01:43:29;19.00;97.60
7232;DHT22;3657;49.630;11.018;2023-07-24T01:45:57;18.50;98.60
7232;DHT22;3657;49.630;11.018;2023-07-24T01:48:24;18.50;99.10
7232;DHT22;3657;49.630;11.018;2023-07-24T01:50:51;18.60;99.40
7232;DHT22;3657;49.630;11.018;2023-07-24T01:53:17;18.50;99.60
7232;DHT22;3657;49.630;11.018;2023-07-24T01:55:44;18.50;99.60
7232;DHT22;3657;49.630;11.018;2023-07-24T01:58:11;18.40;99.80
7232;DHT22;3657;49.630;11.018;2023-07-24T02:00:39;18.90;99.30
7232;DHT22;3657;49.630;11.018;2023-07-24T02:03:05;18.70;99.90
7232;DHT22;3657;49.630;11.018;2023-07-24T02:05:32;18.90;99.10
7232;DHT22;3657;49.630;11.018;2023-07-24T02:07:59;19.00;98.90
7232;DHT22;3657;49.630;11.018;2023-07-24T02:10:26;19.30;98.70
7232;DHT22;3657;49.630;11.018;2023-07-24T02:12:53;19.60;98.50
7232;DHT22;3657;49.630;11.018;2023-07-24T02:15:19;19.90;95.70
7232;DHT22;3657;49.630;11.018;2023-07-24T02:17:47;20.20;95.00
7232;DHT22;3657;49.630;11.018;2023-07-24T02:20:14;20.60;93.60
7232;DHT22;3657;49.630;11.018;2023-07-24T02:22:41;20.80;95.50
7232;DHT22;3657;49.630;11.018;2023-07-24T02:25:08;20.80;93.50
7232;DHT22;3657;49.630;11.018;2023-07-24T02:27:35;21.00;92.10
7232;DHT22;3657;49.630;11.018;2023-07-24T02:30:02;21.20;91.20
7232;DHT22;3657;49.630;11.018;2023-07-24T02:32:29;20.90;94.10
7232;DHT22;3657;49.630;11.018;2023-07-24T02:34:57;21.00;91.70
7232;DHT22;3657;49.630;11.018;2023-07-24T02:37:23;20.80;95.00
7232;DHT22;3657;49.630;11.018;2023-07-24T02:39:51;20.40;95.30
7232;DHT22;3657;49.630;11.018;2023-07-24T02:42:18;20.50;93.30
7232;DHT22;3657;49.630;11.018;2023-07-24T02:44:45;20.70;92.00
7232;DHT22;3657;49.630;11.018;2023-07-24T02:47:13;20.90;91.90
7232;DHT22;3657;49.630;11.018;2023-07-24T02:49:39;21.10;90.80
7232;DHT22;3657;49.630;11.018;2023-07-24T02:52:07;21.20;90.20
7232;DHT22;3657;49.630;11.018;2023-07-24T02:54:34;21.30;89.20
7232;DHT22;3657;49.630;11.018;2023-07-24T02:57:01;21.40;87.60
7232;DHT22;3657;49.630;11.018;2023-07-24T02:59:29;21.40;86.50
7232;DHT22;3657;49.630;11.018;2023-07-24T03:01:57;21.50;86.00
7232;DHT22;3657;49.630;11.018;2023-07-24T03:04:24;21.50;85.20
7232;DHT22;3657;49.630;11.018;2023-07-24T03:06:50;21.50;84.70
7232;DHT22;3657;49.630;11.018;2023-07-24T03:09:18;21.60;85.00
7232;DHT22;3657;49.630;11.018;2023-07-24T03:11:45;21.50;84.00
7232;DHT22;3657;49.630;11.018;2023-07-24T03:14:12;21.50;83.90
7232;DHT22;3657;49.630;11.018;2023-07-24T03:16:38;21.50;83.60
7232;DHT22;3657;49.630;11.018;2023-07-24T03:19:05;21.50;83.30
7232;DHT22;3657;49.630;11.018;2023-07-24T03:21:32;21.40;90.30
7232;DHT22;3657;49.630;11.018;2023-07-24T03:23:58;21.30;91.50
7232;DHT22;3657;49.630;11.018;2023-07-24T03:26:29;20.90;90.40
7232;DHT22;3657;49.630;11.018;2023-07-24T03:28:55;20.90;90.10
7232;DHT22;3657;49.630;11.018;2023-07-24T03:31:22;21.00;88.00
7232;DHT22;3657;49.630;11.018;2023-07-24T03:33:49;21.00;90.00
7232;DHT22;3657;49.630;11.018;2023-07-24T03:36:15;21.10;86.90
7232;DHT22;3657;49.630;11.018;2023-07-24T03:38:42;21.10;88.00
7232;DHT22;3657;49.630;11.018;2023-07-24T03:41:09;21.10;86.10
7232;DHT22;3657;49.630;11.018;2023-07-24T03:43:37;21.20;85.50
7232;DHT22;3657;49.630;11.018;2023-07-24T03:46:03;21.20;84.70
7232;DHT22;3657;49.630;11.018;2023-07-24T03:48:30;21.20;84.40
7232;DHT22;3657;49.630;11.018;2023-07-24T03:51:00;21.20;83.80
7232;DHT22;3657;49.630;11.018;2023-07-24T03:53:27;21.20;83.70
7232;DHT22;3657;49.630;11.018;2023-07-24T03:55:54;21.20;83.70
7232;DHT22;3657;49.630;11.018;2023-07-24T03:58:21;21.20;83.40
7232;DHT22;3657;49.630;11.018;2023-07-24T04:00:49;21.20;91.00
7232;DHT22;3657;49.630;11.018;2023-07-24T04:03:16;20.90;94.10
7232;DHT22;3657;49.630;11.018;2023-07-24T04:05:42;20.90;88.10
7232;DHT22;3657;49.630;11.018;2023-07-24T04:08:09;20.90;86.70
7232;DHT22;3657;49.630;11.018;2023-07-24T04:10:36;20.90;87.80
7232;DHT22;3657;49.630;11.018;2023-07-24T04:13:03;21.00;89.80
7232;DHT22;3657;49.630;11.018;2023-07-24T04:15:29;20.90;90.60
7232;DHT22;3657;49.630;11.018;2023-07-24T04:17:57;20.60;94.20
7232;DHT22;3657;49.630;11.018;2023-07-24T04:20:24;20.50;92.50
7232;DHT22;3657;49.630;11.018;2023-07-24T04:22:51;20.50;90.70
7232;DHT22;3657;49.630;11.018;2023-07-24T04:25:17;20.50;95.20
7232;DHT22;3657;49.630;11.018;2023-07-24T04:27:44;20.50;94.10
7232;DHT22;3657;49.630;11.018;2023-07-24T04:30:11;20.30;95.70
7232;DHT22;3657;49.630;11.018;2023-07-24T04:32:39;20.40;92.60
7232;DHT22;3657;49.630;11.018;2023-07-24T04:35:07;20.50;90.40
7232;DHT22;3657;49.630;11.018;2023-07-24T04:37:35;20.60;89.40
7232;DHT22;3657;49.630;11.018;2023-07-24T04:40:01;20.80;88.10
7232;DHT22;3657;49.630;11.018;2023-07-24T04:42:28;20.90;87.00
7232;DHT22;3657;49.630;11.018;2023-07-24T04:44:55;21.00;86.40
7232;DHT22;3657;49.630;11.018;2023-07-24T04:47:21;21.00;90.80
7232;DHT22;3657;49.630;11.018;2023-07-24T04:49:48;20.90;91.60
7232;DHT22;3657;49.630;11.018;2023-07-24T04:52:16;20.90;91.80
7232;DHT22;3657;49.630;11.018;2023-07-24T04:54:44;21.00;88.20
7232;DHT22;3657;49.630;11.018;2023-07-24T04:57:10;21.10;88.40
7232;DHT22;3657;49.630;11.018;2023-07-24T04:59:37;21.20;86.10
7232;DHT22;3657;49.630;11.018;2023-07-24T05:02:04;21.20;85.30
7232;DHT22;3657;49.630;11.018;2023-07-24T05:04:31;21.20;87.80
7232;DHT22;3657;49.630;11.018;2023-07-24T05:06:57;20.80;94.90
7232;DHT22;3657;49.630;11.018;2023-07-24T05:09:25;20.30;97.60
7232;DHT22;3657;49.630;11.018;2023-07-24T05:11:52;20.20;96.70
7232;DHT22;3657;49.630;11.018;2023-07-24T05:14:19;20.20;94.70
7232;DHT22;3657;49.630;11.018;2023-07-24T05:16:45;20.10;95.80
7232;DHT22;3657;49.630;11.018;2023-07-24T05:19:12;19.90;95.30
7232;DHT22;3657;49.630;11.018;2023-07-24T05:21:38;20.00;96.60
7232;DHT22;3657;49.630;11.018;2023-07-24T05:24:05;20.10;96.00
7232;DHT22;3657;49.630;11.018;2023-07-24T05:26:33;20.20;93.30
7232;DHT22;3657;49.630;11.018;2023-07-24T05:29:00;20.30;95.70
7232;DHT22;3657;49.630;11.018;2023-07-24T05:31:26;20.30;97.20
7232;DHT22;3657;49.630;11.018;2023-07-24T05:33:53;20.30;95.00
7232;DHT22;3657;49.630;11.018;2023-07-24T05:36:20;20.50;95.10
7232;DHT22;3657;49.630;11.018;2023-07-24T05:38:46;20.50;95.40
7232;DHT22;3657;49.630;11.018;2023-07-24T05:41:13;20.60;97.60
7232;DHT22;3657;49.630;11.018;2023-07-24T05:43:41;20.70;98.00
7232;DHT22;3657;49.630;11.018;2023-07-24T05:46:08;20.80;94.30
7232;DHT22;3657;49.630;11.018;2023-07-24T05:48:34;20.90;94.40
7232;DHT22;3657;49.630;11.018;2023-07-24T05:51:01;21.10;95.50
7232;DHT22;3657;49.630;11.018;2023-07-24T05:53:28;21.50;92.10
7232;DHT22;3657;49.630;11.018;2023-07-24T05:55:58;21.80;91.20
7232;DHT22;3657;49.630;11.018;2023-07-24T05:58:26;22.30;88.90
7232;DHT22;3657;49.630;11.018;2023-07-24T06:00:54;22.60;86.00
7232;DHT22;3657;49.630;11.018;2023-07-24T06:03:21;22.80;87.20
7232;DHT22;3657;49.630;11.018;2023-07-24T06:05:51;22.90;85.80
7232;DHT22;3657;49.630;11.018;2023-07-24T06:08:18;22.80;88.10
7232;DHT22;3657;49.630;11.018;2023-07-24T06:10:46;22.70;88.90
7232;DHT22;3657;49.630;11.018;2023-07-24T06:13:12;22.30;91.40
7232;DHT22;3657;49.630;11.018;2023-07-24T06:15:39;22.30;91.60
7232;DHT22;3657;49.630;11.018;2023-07-24T06:18:07;22.20;92.40
7232;DHT22;3657;49.630;11.018;2023-07-24T06:20:34;22.00;93.20
7232;DHT22;3657;49.630;11.018;2023-07-24T06:23:01;21.70;94.60
7232;DHT22;3657;49.630;11.018;2023-07-24T06:25:29;21.60;93.00
7232;DHT22;3657;49.630;11.018;2023-07-24T06:27:56;21.50;94.80
7232;DHT22;3657;49.630;11.018;2023-07-24T06:30:22;21.40;95.20
7232;DHT22;3657;49.630;11.018;2023-07-24T06:32:49;21.40;95.30
7232;DHT22;3657;49.630;11.018;2023-07-24T06:35:17;21.40;95.70
7232;DHT22;3657;49.630;11.018;2023-07-24T06:37:44;21.40;95.60
7232;DHT22;3657;49.630;11.018;2023-07-24T06:40:11;21.50;95.80
7232;DHT22;3657;49.630;11.018;2023-07-24T06:42:38;21.60;95.60
7232;DHT22;3657;49.630;11.018;2023-07-24T06:45:06;21.60;96.00
7232;DHT22;3657;49.630;11.018;2023-07-24T06:47:33;21.90;95.10
7232;DHT22;3657;49.630;11.018;2023-07-24T06:49:59;21.80;95.80
7232;DHT22;3657;49.630;11.018;2023-07-24T06:52:28;22.00;95.60
7232;DHT22;3657;49.630;11.018;2023-07-24T06:54:55;22.30;95.20
7232;DHT22;3657;49.630;11.018;2023-07-24T06:57:23;22.70;94.40
7232;DHT22;3657;49.630;11.018;2023-07-24T06:59:50;23.20;93.40
7232;DHT22;3657;49.630;11.018;2023-07-24T07:02:16;23.20;93.40
7232;DHT22;3657;49.630;11.018;2023-07-24T07:04:43;23.20;93.50
7232;DHT22;3657;49.630;11.018;2023-07-24T07:07:10;23.20;92.60
7232;DHT22;3657;49.630;11.018;2023-07-24T07:09:38;22.50;93.60
7232;DHT22;3657;49.630;11.018;2023-07-24T07:12:06;22.20;94.50
7232;DHT22;3657;49.630;11.018;2023-07-24T07:14:32;22.00;95.20
7232;DHT22;3657;49.630;11.018;2023-07-24T07:16:59;21.70;96.00
7232;DHT22;3657;49.630;11.018;2023-07-24T07:19:27;21.80;96.50
7232;DHT22;3657;49.630;11.018;2023-07-24T07:21:53;21.90;96.50
7232;DHT22;3657;49.630;11.018;2023-07-24T07:24:20;22.20;96.50
7232;DHT22;3657;49.630;11.018;2023-07-24T07:26:48;22.10;96.20
7232;DHT22;3657;49.630;11.018;2023-07-24T07:29:15;22.10;96.10
7232;DHT22;3657;49.630;11.018;2023-07-24T07:31:44;21.80;96.60
7232;DHT22;3657;49.630;11.018;2023-07-24T07:34:10;22.00;96.40
7232;DHT22;3657;49.630;11.018;2023-07-24T07:36:37;22.10;96.20
7232;DHT22;3657;49.630;11.018;2023-07-24T07:39:04;22.30;96.00
7232;DHT22;3657;49.630;11.018;2023-07-24T07:41:30;22.20;96.30
7232;DHT22;3657;49.630;11.018;2023-07-24T07:44:00;22.40;95.60
7232;DHT22;3657;49.630;11.018;2023-07-24T07:46:26;22.30;96.50
7232;DHT22;3657;49.630;11.018;2023-07-24T07:48:53;22.40;96.00
7232;DHT22;3657;49.630;11.018;2023-07-24T07:51:20;22.50;95.50
7232;DHT22;3657;49.630;11.018;2023-07-24T07:53:47;22.60;95.90
7232;DHT22;3657;49.630;11.018;2023-07-24T07:56:13;22.60;96.10
7232;DHT22;3657;49.630;11.018;2023-07-24T07:58:40;22.50;95.90
7232;DHT22;3657;49.630;11.018;2023-07-24T08:01:08;22.60;96.10
7232;DHT22;3657;49.630;11.018;2023-07-24T08:03:35;22.60;95.90
7232;DHT22;3657;49.630;11.018;2023-07-24T08:06:02;22.60;96.40
7232;DHT22;3657;49.630;11.018;2023-07-24T08:08:28;22.60;96.60
7232;DHT22;3657;49.630;11.018;2023-07-24T08:10:55;22.30;96.70
7232;DHT22;3657;49.630;11.018;2023-07-24T08:13:22;22.30;96.50
7232;DHT22;3657;49.630;11.018;2023-07-24T08:15:49;22.50;96.90
7232;DHT22;3657;49.630;11.018;2023-07-24T08:18:17;22.60;96.40
7232;DHT22;3657;49.630;11.018;2023-07-24T08:20:44;22.60;96.40
7232;DHT22;3657;49.630;11.018;2023-07-24T08:23:11;22.70;96.10
7232;DHT22;3657;49.630;11.018;2023-07-24T08:25:37;22.80;96.10
7232;DHT22;3657;49.630;11.018;2023-07-24T08:28:04;22.80;96.60
7232;DHT22;3657;49.630;11.018;2023-07-24T08:30:31;22.90;96.60
7232;DHT22;3657;49.630;11.018;2023-07-24T08:32:58;23.20;96.30
7232;DHT22;3657;49.630;11.018;2023-07-24T08:35:26;23.20;96.20
7232;DHT22;3657;49.630;11.018;2023-07-24T08:37:52;23.30;96.00
7232;DHT22;3657;49.630;11.018;2023-07-24T08:40:20;23.30;95.80
7232;DHT22;3657;49.630;11.018;2023-07-24T08:42:51;23.00;96.20
7232;DHT22;3657;49.630;11.018;2023-07-24T08:45:20;22.80;96.80
7232;DHT22;3657;49.630;11.018;2023-07-24T08:47:47;23.10;96.70
7232;DHT22;3657;49.630;11.018;2023-07-24T08:50:14;23.30;96.60
7232;DHT22;3657;49.630;11.018;2023-07-24T08:52:43;23.60;96.20
7232;DHT22;3657;49.630;11.018;2023-07-24T08:55:12;23.50;96.20
7232;DHT22;3657;49.630;11.018;2023-07-24T08:57:38;23.40;96.30
7232;DHT22;3657;49.630;11.018;2023-07-24T09:00:06;23.70;96.10
7232;DHT22;3657;49.630;11.018;2023-07-24T09:02:34;24.10;95.50
7232;DHT22;3657;49.630;11.018;2023-07-24T09:05:01;24.50;95.00
7232;DHT22;3657;49.630;11.018;2023-07-24T09:07:29;24.60;94.80
7232;DHT22;3657;49.630;11.018;2023-07-24T09:09:57;25.00;94.50
7232;DHT22;3657;49.630;11.018;2023-07-24T09:12:24;25.00;94.10
7232;DHT22;3657;49.630;11.018;2023-07-24T09:15:01;24.70;93.40
7232;DHT22;3657;49.630;11.018;2023-07-24T09:17:28;24.30;94.00
7232;DHT22;3657;49.630;11.018;2023-07-24T09:19:56;24.10;94.40
7232;DHT22;3657;49.630;11.018;2023-07-24T09:22:23;24.40;94.80
7232;DHT22;3657;49.630;11.018;2023-07-24T09:24:52;24.60;94.50
7232;DHT22;3657;49.630;11.018;2023-07-24T09:27:24;24.60;93.80
7232;DHT22;3657;49.630;11.018;2023-07-24T09:29:51;24.70;94.30
7232;DHT22;3657;49.630;11.018;2023-07-24T09:32:21;24.80;94.10
7232;DHT22;3657;49.630;11.018;2023-07-24T09:34:48;24.90;93.80
7232;DHT22;3657;49.630;11.018;2023-07-24T09:37:24;25.00;93.60
7232;DHT22;3657;49.630;11.018;2023-07-24T09:39:51;25.10;93.60
7232;DHT22;3657;49.630;11.018;2023-07-24T09:42:18;25.00;93.50
7232;DHT22;3657;49.630;11.018;2023-07-24T09:44:46;24.90;93.10
7232;DHT22;3657;49.630;11.018;2023-07-24T09:47:12;24.90;93.30
7232;DHT22;3657;49.630;11.018;2023-07-24T09:49:39;24.80;93.20
7232;DHT22;3657;49.630;11.018;2023-07-24T09:52:09;24.90;93.60
7232;DHT22;3657;49.630;11.018;2023-07-24T09:54:42;24.90;93.50
7232;DHT22;3657;49.630;11.018;2023-07-24T09:57:13;24.80;93.40
7232;DHT22;3657;49.630;11.018;2023-07-24T09:59:40;24.70;94.00
7232;DHT22;3657;49.630;11.018;2023-07-24T10:02:11;24.60;95.10
7232;DHT22;3657;49.630;11.018;2023-07-24T10:04:40;24.50;96.60
7232;DHT22;3657;49.630;11.018;2023-07-24T10:07:07;24.30;96.60
7232;DHT22;3657;49.630;11.018;2023-07-24T10:09:34;24.30;97.60
7232;DHT22;3657;49.630;11.018;2023-07-24T10:12:02;24.30;96.30
7232;DHT22;3657;49.630;11.018;2023-07-24T10:14:30;24.40;96.00
7232;DHT22;3657;49.630;11.018;2023-07-24T10:16:57;24.40;96.20
7232;DHT22;3657;49.630;11.018;2023-07-24T10:19:35;24.60;96.40
7232;DHT22;3657;49.630;11.018;2023-07-24T10:22:02;24.60;96.40
7232;DHT22;3657;49.630;11.018;2023-07-24T10:24:29;24.70;97.00
7232;DHT22;3657;49.630;11.018;2023-07-24T10:26:56;24.60;97.70
7232;DHT22;3657;49.630;11.018;2023-07-24T10:29:24;24.70;97.90
7232;DHT22;3657;49.630;11.018;2023-07-24T10:31:53;24.70;98.10
7232;DHT22;3657;49.630;11.018;2023-07-24T10:34:20;24.70;99.10
7232;DHT22;3657;49.630;11.018;2023-07-24T10:36:48;24.70;99.60
7232;DHT22;3657;49.630;11.018;2023-07-24T10:39:16;24.80;99.30
7232;DHT22;3657;49.630;11.018;2023-07-24T10:41:44;24.90;99.50
7232;DHT22;3657;49.630;11.018;2023-07-24T10:44:11;24.90;99.90
7232;DHT22;3657;49.630;11.018;2023-07-24T10:46:40;24.80;99.00
7232;DHT22;3657;49.630;11.018;2023-07-24T10:49:07;24.80;99.00
7232;DHT22;3657;49.630;11.018;2023-07-24T10:51:34;24.70;99.40
7232;DHT22;3657;49.630;11.018;2023-07-24T10:54:04;24.60;99.40
7232;DHT22;3657;49.630;11.018;2023-07-24T10:56:32;24.60;99.90
7232;DHT22;3657;49.630;11.018;2023-07-24T10:59:03;24.60;99.90
7232;DHT22;3657;49.630;11.018;2023-07-24T11:01:31;24.60;99.50
7232;DHT22;3657;49.630;11.018;2023-07-24T11:03:58;24.50;99.90
7232;DHT22;3657;49.630;11.018;2023-07-24T11:06:25;24.40;99.50
7232;DHT22;3657;49.630;11.018;2023-07-24T11:08:52;24.40;99.40
7232;DHT22;3657;49.630;11.018;2023-07-24T11:11:20;24.40;99.10
7232;DHT22;3657;49.630;11.018;2023-07-24T11:13:47;24.40;99.10
7232;DHT22;3657;49.630;11.018;2023-07-24T11:16:14;24.40;99.00
7232;DHT22;3657;49.630;11.018;2023-07-24T11:18:45;24.40;98.90
7232;DHT22;3657;49.630;11.018;2023-07-24T11:21:13;24.40;98.90
7232;DHT22;3657;49.630;11.018;2023-07-24T11:23:45;24.40;98.70
7232;DHT22;3657;49.630;11.018;2023-07-24T11:26:12;24.40;98.80
7232;DHT22;3657;49.630;11.018;2023-07-24T11:28:40;24.40;99.20
7232;DHT22;3657;49.630;11.018;2023-07-24T11:31:07;24.10;99.90
7232;DHT22;3657;49.630;11.018;2023-07-24T11:33:34;24.10;99.90
7232;DHT22;3657;49.630;11.018;2023-07-24T11:36:01;24.10;99.90
7232;DHT22;3657;49.630;11.018;2023-07-24T11:38:28;24.10;99.90
7232;DHT22;3657;49.630;11.018;2023-07-24T11:40:55;24.10;99.90
7232;DHT22;3657;49.630;11.018;2023-07-24T11:43:23;24.20;99.90
7232;DHT22;3657;49.630;11.018;2023-07-24T11:45:53;24.20;99.90
7232;DHT22;3657;49.630;11.018;2023-07-24T11:48:21;24.30;99.90
7232;DHT22;3657;49.630;11.018;2023-07-24T11:50:50;24.40;99.90
7232;DHT22;3657;49.630;11.018;2023-07-24T11:53:21;24.50;99.90
7232;DHT22;3657;49.630;11.018;2023-07-24T11:55:48;24.60;99.90
7232;DHT22;3657;49.630;11.018;2023-07-24T11:58:16;24.40;99.90
7232;DHT22;3657;49.630;11.018;2023-07-24T12:00:43;24.50;99.90
7232;DHT22;3657;49.630;11.018;2023-07-24T12:03:11;24.50;99.90
7232;DHT22;3657;49.630;11.018;2023-07-24T12:05:38;24.60;99.90
7232;DHT22;3657;49.630;11.018;2023-07-24T12:08:05;24.50;99.90
7232;DHT22;3657;49.630;11.018;2023-07-24T12:10:36;24.40;99.90
7232;DHT22;3657;49.630;11.018;2023-07-24T12:13:03;24.50;99.90
7232;DHT22;3657;49.630;11.018;2023-07-24T12:15:30;24.60;99.90
7232;DHT22;3657;49.630;11.018;2023-07-24T12:17:58;24.70;99.90
7232;DHT22;3657;49.630;11.018;2023-07-24T12:20:27;24.70;99.90
7232;DHT22;3657;49.630;11.018;2023-07-24T12:22:55;24.70;99.90
7232;DHT22;3657;49.630;11.018;2023-07-24T12:25:22;24.80;99.90
7232;DHT22;3657;49.630;11.018;2023-07-24T12:27:49;24.80;99.90
7232;DHT22;3657;49.630;11.018;2023-07-24T12:30:15;24.80;99.90
7232;DHT22;3657;49.630;11.018;2023-07-24T12:32:42;24.80;99.90
7232;DHT22;3657;49.630;11.018;2023-07-24T12:35:10;24.80;99.90
7232;DHT22;3657;49.630;11.018;2023-07-24T12:37:38;24.80;99.90
7232;DHT22;3657;49.630;11.018;2023-07-24T12:40:06;24.60;99.90
7232;DHT22;3657;49.630;11.018;2023-07-24T12:42:33;24.60;99.90
7232;DHT22;3657;49.630;11.018;2023-07-24T12:45:00;24.60;99.90
7232;DHT22;3657;49.630;11.018;2023-07-24T12:47:28;24.50;99.90
7232;DHT22;3657;49.630;11.018;2023-07-24T12:49:55;24.40;99.90
7232;DHT22;3657;49.630;11.018;2023-07-24T12:52:23;24.50;99.90
7232;DHT22;3657;49.630;11.018;2023-07-24T12:54:51;24.40;99.90
7232;DHT22;3657;49.630;11.018;2023-07-24T12:57:18;24.50;99.90
7232;DHT22;3657;49.630;11.018;2023-07-24T12:59:44;24.60;99.90
7232;DHT22;3657;49.630;11.018;2023-07-24T13:02:11;24.60;99.90
7232;DHT22;3657;49.630;11.018;2023-07-24T13:04:38;24.70;99.90
7232;DHT22;3657;49.630;11.018;2023-07-24T13:07:05;24.70;99.90
7232;DHT22;3657;49.630;11.018;2023-07-24T13:09:32;24.80;99.90
7232;DHT22;3657;49.630;11.018;2023-07-24T13:12:00;24.90;99.90
7232;DHT22;3657;49.630;11.018;2023-07-24T13:14:26;24.90;99.00
7232;DHT22;3657;49.630;11.018;2023-07-24T13:16:53;25.10;98.60
7232;DHT22;3657;49.630;11.018;2023-07-24T13:19:20;25.20;98.70
7232;DHT22;3657;49.630;11.018;2023-07-24T13:21:47;25.20;96.80
7232;DHT22;3657;49.630;11.018;2023-07-24T13:24:13;25.40;98.10
7232;DHT22;3657;49.630;11.018;2023-07-24T13:26:40;25.50;97.00
7232;DHT22;3657;49.630;11.018;2023-07-24T13:29:09;25.50;96.20
7232;DHT22;3657;49.630;11.018;2023-07-24T13:31:36;25.50;96.20
7232;DHT22;3657;49.630;11.018;2023-07-24T13:34:02;25.50;96.70
7232;DHT22;3657;49.630;11.018;2023-07-24T13:36:29;25.30;96.80
7232;DHT22;3657;49.630;11.018;2023-07-24T13:38:56;25.30;96.30
7232;DHT22;3657;49.630;11.018;2023-07-24T13:41:22;25.40;96.30
7232;DHT22;3657;49.630;11.018;2023-07-24T13:43:49;25.40;96.60
7232;DHT22;3657;49.630;11.018;2023-07-24T13:46:17;25.60;97.70
7232;DHT22;3657;49.630;11.018;2023-07-24T13:48:44;25.70;96.50
7232;DHT22;3657;49.630;11.018;2023-07-24T13:51:11;25.90;95.20
7232;DHT22;3657;49.630;11.018;2023-07-24T13:53:38;25.90;94.30
7232;DHT22;3657;49.630;11.018;2023-07-24T13:56:05;25.90;93.90
7232;DHT22;3657;49.630;11.018;2023-07-24T13:58:32;26.00;95.00
7232;DHT22;3657;49.630;11.018;2023-07-24T14:00:58;26.10;94.10
7232;DHT22;3657;49.630;11.018;2023-07-24T14:03:26;26.00;92.60
7232;DHT22;3657;49.630;11.018;2023-07-24T14:05:55;26.20;95.60
7232;DHT22;3657;49.630;11.018;2023-07-24T14:08:22;26.30;93.20
7232;DHT22;3657;49.630;11.018;2023-07-24T14:10:48;26.30;92.50
7232;DHT22;3657;49.630;11.018;2023-07-24T14:13:15;26.40;93.10
7232;DHT22;3657;49.630;11.018;2023-07-24T14:15:42;26.50;91.00
7232;DHT22;3657;49.630;11.018;2023-07-24T14:18:08;26.80;92.10
7232;DHT22;3657;49.630;11.018;2023-07-24T14:20:36;26.80;89.70
7232;DHT22;3657;49.630;11.018;2023-07-24T14:23:05;26.90;90.00
7232;DHT22;3657;49.630;11.018;2023-07-24T14:25:32;26.80;89.20
7232;DHT22;3657;49.630;11.018;2023-07-24T14:27:59;26.70;86.80
7232;DHT22;3657;49.630;11.018;2023-07-24T14:30:25;26.60;87.00
7232;DHT22;3657;49.630;11.018;2023-07-24T14:32:52;26.50;86.20
7232;DHT22;3657;49.630;11.018;2023-07-24T14:35:19;26.60;85.20
7232;DHT22;3657;49.630;11.018;2023-07-24T14:37:47;26.50;86.40
7232;DHT22;3657;49.630;11.018;2023-07-24T14:40:13;26.70;90.00
7232;DHT22;3657;49.630;11.018;2023-07-24T14:42:40;26.90;84.70
7232;DHT22;3657;49.630;11.018;2023-07-24T14:45:08;27.00;88.30
7232;DHT22;3657;49.630;11.018;2023-07-24T14:47:34;27.00;89.30
7232;DHT22;3657;49.630;11.018;2023-07-24T14:50:01;27.00;83.70
7232;DHT22;3657;49.630;11.018;2023-07-24T14:52:28;26.90;84.70
7232;DHT22;3657;49.630;11.018;2023-07-24T14:54:56;26.90;85.20
7232;DHT22;3657;49.630;11.018;2023-07-24T14:57:23;26.70;86.60
7232;DHT22;3657;49.630;11.018;2023-07-24T14:59:50;26.70;85.30
7232;DHT22;3657;49.630;11.018;2023-07-24T15:02:17;26.70;87.70
7232;DHT22;3657;49.630;11.018;2023-07-24T15:04:44;26.80;87.60
7232;DHT22;3657;49.630;11.018;2023-07-24T15:07:10;26.90;87.90
7232;DHT22;3657;49.630;11.018;2023-07-24T15:09:37;27.00;85.70
7232;DHT22;3657;49.630;11.018;2023-07-24T15:12:05;26.90;83.30
7232;DHT22;3657;49.630;11.018;2023-07-24T15:14:32;26.90;81.90
7232;DHT22;3657;49.630;11.018;2023-07-24T15:16:59;26.90;81.30
7232;DHT22;3657;49.630;11.018;2023-07-24T15:19:25;27.00;83.20
7232;DHT22;3657;49.630;11.018;2023-07-24T15:21:52;27.10;80.30
7232;DHT22;3657;49.630;11.018;2023-07-24T15:24:19;27.10;80.30
7232;DHT22;3657;49.630;11.018;2023-07-24T15:26:45;27.10;78.60
7232;DHT22;3657;49.630;11.018;2023-07-24T15:29:13;26.80;80.80
7232;DHT22;3657;49.630;11.018;2023-07-24T15:31:42;26.80;81.50
7232;DHT22;3657;49.630;11.018;2023-07-24T15:34:08;26.90;81.90
7232;DHT22;3657;49.630;11.018;2023-07-24T15:36:35;27.10;80.10
7232;DHT22;3657;49.630;11.018;2023-07-24T15:39:03;27.20;80.30
7232;DHT22;3657;49.630;11.018;2023-07-24T15:41:30;27.10;81.40
7232;DHT22;3657;49.630;11.018;2023-07-24T15:43:57;26.90;80.30
7232;DHT22;3657;49.630;11.018;2023-07-24T15:46:25;27.00;81.30